createdAt,value
2018-11-02T00:02:11.172Z,98596.00
2018-11-02T00:04:39.857Z,98594.00
2018-11-02T00:07:08.496Z,98591.00
2018-11-02T00:09:37.000Z,98597.00
2018-11-02T00:12:06.204Z,98594.00
2018-11-02T00:14:34.931Z,98599.00
2018-11-02T00:17:03.589Z,98613.00
2018-11-02T00:19:33.270Z,98618.00
2018-11-02T00:22:03.349Z,98626.00
2018-11-02T00:24:32.034Z,98633.00
2018-11-02T00:27:01.260Z,98625.00
2018-11-02T00:29:30.996Z,98633.00
2018-11-02T00:32:00.010Z,98629.00
2018-11-02T00:34:28.983Z,98645.00
2018-11-02T00:36:57.825Z,98656.00
2018-11-02T00:39:26.402Z,98663.00
2018-11-02T00:41:55.171Z,98665.00
2018-11-02T00:44:23.909Z,98671.00
2018-11-02T00:46:52.679Z,98675.00
2018-11-02T00:49:21.264Z,98678.00
2018-11-02T00:51:50.033Z,98679.00
2018-11-02T00:54:19.066Z,98690.00
2018-11-02T00:56:48.082Z,98700.00
2018-11-02T00:59:17.041Z,98694.00
2018-11-02T01:01:45.947Z,98697.00
2018-11-02T01:04:14.873Z,98693.00
2018-11-02T01:06:43.433Z,98685.00
2018-11-02T01:09:12.514Z,98692.00
2018-11-02T01:11:41.538Z,98689.00
2018-11-02T01:14:10.381Z,98689.00
2018-11-02T01:16:39.156Z,98690.00
2018-11-02T01:19:08.054Z,98693.00
2018-11-02T01:21:36.749Z,98698.00
2018-11-02T01:24:05.867Z,98694.00
2018-11-02T01:26:34.751Z,98690.00
2018-11-02T01:29:03.504Z,98704.00
2018-11-02T01:31:32.136Z,98696.00
2018-11-02T01:34:00.930Z,98697.00
2018-11-02T01:36:29.568Z,98682.00
2018-11-02T01:38:58.147Z,98691.00
2018-11-02T01:41:27.088Z,98705.00
2018-11-02T01:43:55.647Z,98685.00
2018-11-02T01:46:24.253Z,98689.00
2018-11-02T01:48:52.921Z,98681.00
2018-11-02T01:51:21.665Z,98682.00
2018-11-02T01:53:50.359Z,98674.00
2018-11-02T01:56:18.971Z,98678.00
2018-11-02T01:58:47.699Z,98679.00
2018-11-02T02:01:16.552Z,98676.00
2018-11-02T02:03:45.134Z,98681.00
2018-11-02T02:06:13.715Z,98676.00
2018-11-02T02:08:42.544Z,98679.00
2018-11-02T02:11:11.310Z,98679.00
2018-11-02T02:13:39.851Z,98669.00
2018-11-02T02:16:08.684Z,98678.00
2018-11-02T02:18:38.155Z,98682.00
2018-11-02T02:21:07.876Z,98678.00
2018-11-02T02:23:37.194Z,98670.00
2018-11-02T02:26:07.007Z,98662.00
2018-11-02T02:28:36.413Z,98674.00
2018-11-02T02:31:05.908Z,98674.00
2018-11-02T02:33:34.699Z,98681.00
2018-11-02T02:36:03.609Z,98679.00
2018-11-02T02:38:32.205Z,98674.00
2018-11-02T02:41:00.879Z,98668.00
2018-11-02T02:43:29.541Z,98671.00
2018-11-02T02:45:58.433Z,98665.00
2018-11-02T02:48:27.192Z,98662.00
2018-11-02T02:50:56.059Z,98667.00
2018-11-02T02:53:24.720Z,98678.00
2018-11-02T02:55:53.328Z,98688.00
2018-11-02T02:58:22.010Z,98679.00
2018-11-02T03:00:50.660Z,98690.00
2018-11-02T03:03:19.405Z,98683.00
2018-11-02T03:05:48.269Z,98693.00
2018-11-02T03:08:16.940Z,98689.00
2018-11-02T03:10:45.906Z,98700.00
2018-11-02T03:13:14.714Z,98712.00
2018-11-02T03:15:43.403Z,98714.00
2018-11-02T03:18:12.256Z,98718.00
2018-11-02T03:20:40.889Z,98727.00
2018-11-02T03:23:09.662Z,98731.00
2018-11-02T03:25:38.490Z,98722.00
2018-11-02T03:28:07.166Z,98728.00
2018-11-02T03:30:35.877Z,98721.00
2018-11-02T03:33:04.534Z,98721.00
2018-11-02T03:35:33.421Z,98722.00
2018-11-02T03:38:02.004Z,98734.00
2018-11-02T03:40:30.816Z,98753.00
2018-11-02T03:42:59.423Z,98754.00
2018-11-02T03:45:28.118Z,98759.00
2018-11-02T03:47:56.675Z,98763.00
2018-11-02T03:50:25.553Z,98771.00
2018-11-02T03:52:54.290Z,98780.00
2018-11-02T03:55:22.947Z,98776.00
2018-11-02T03:57:51.629Z,98773.00
2018-11-02T04:00:20.706Z,98776.00
2018-11-02T04:02:49.338Z,98762.00
2018-11-02T04:05:18.077Z,98762.00
2018-11-02T04:07:46.797Z,98760.00
2018-11-02T04:10:15.588Z,98766.00
2018-11-02T04:12:44.157Z,98765.00
2018-11-02T04:15:12.750Z,98765.00
2018-11-02T04:17:41.515Z,98761.00
2018-11-02T04:20:10.642Z,98749.00
2018-11-02T04:22:39.463Z,98748.00
2018-11-02T04:25:08.413Z,98751.00
2018-11-02T04:27:37.126Z,98758.00
2018-11-02T04:30:06.768Z,98773.00
2018-11-02T04:32:35.542Z,98781.00
2018-11-02T04:35:04.251Z,98773.00
2018-11-02T04:37:33.028Z,98770.00
2018-11-02T04:40:01.557Z,98775.00
2018-11-02T04:42:30.336Z,98769.00
2018-11-02T04:44:58.981Z,98781.00
2018-11-02T04:47:27.714Z,98793.00
2018-11-02T04:49:56.698Z,98799.00
2018-11-02T04:52:26.149Z,98792.00
2018-11-02T04:54:55.103Z,98800.00
2018-11-02T04:57:24.081Z,98799.00
2018-11-02T04:59:52.774Z,98813.00
2018-11-02T05:02:21.552Z,98816.00
2018-11-02T05:04:50.345Z,98816.00
2018-11-02T05:07:19.114Z,98822.00
2018-11-02T05:09:48.159Z,98817.00
2018-11-02T05:12:16.662Z,98823.00
2018-11-02T05:14:45.229Z,98817.00
2018-11-02T05:17:13.868Z,98822.00
2018-11-02T05:19:42.481Z,98827.00
2018-11-02T05:22:11.189Z,98841.00
2018-11-02T05:24:39.864Z,98839.00
2018-11-02T05:27:08.425Z,98851.00
2018-11-02T05:29:37.136Z,98849.00
2018-11-02T05:32:06.860Z,98857.00
2018-11-02T05:34:35.523Z,98858.00
2018-11-02T05:37:04.300Z,98863.00
2018-11-02T05:39:33.144Z,98863.00
2018-11-02T05:42:01.767Z,98873.00
2018-11-02T05:44:30.353Z,98884.00
2018-11-02T05:46:58.968Z,98897.00
2018-11-02T05:49:27.533Z,98896.00
2018-11-02T05:51:56.099Z,98910.00
2018-11-02T05:54:24.792Z,98904.00
2018-11-02T05:56:53.615Z,98903.00
2018-11-02T05:59:22.199Z,98903.00
2018-11-02T06:01:50.967Z,98906.00
2018-11-02T06:04:19.613Z,98907.00
2018-11-02T06:06:48.388Z,98916.00
2018-11-02T06:09:16.982Z,98928.00
2018-11-02T06:11:45.546Z,98923.00
2018-11-02T06:14:14.124Z,98931.00
2018-11-02T06:16:43.185Z,98932.00
2018-11-02T06:19:11.788Z,98936.00
2018-11-02T06:21:40.382Z,98956.00
2018-11-02T06:24:09.207Z,98952.00
2018-11-02T06:26:37.761Z,98956.00
2018-11-02T06:29:06.345Z,98958.00
2018-11-02T06:31:34.907Z,98961.00
2018-11-02T06:34:03.473Z,98963.00
2018-11-02T06:36:32.329Z,98965.00
2018-11-02T06:39:00.943Z,98969.00
2018-11-02T06:41:29.565Z,98965.00
2018-11-02T06:43:58.386Z,98969.00
2018-11-02T06:46:26.999Z,98970.00
2018-11-02T06:48:55.624Z,98978.00
2018-11-02T06:51:24.508Z,98990.00
2018-11-02T06:53:53.561Z,98991.00
2018-11-02T06:56:22.401Z,98984.00
2018-11-02T06:58:51.479Z,99005.00
2018-11-02T07:01:20.394Z,99004.00
2018-11-02T07:03:49.331Z,99006.00
2018-11-02T07:06:18.255Z,99016.00
2018-11-02T07:08:47.587Z,99011.00
2018-11-02T07:11:16.588Z,99012.00
2018-11-02T07:13:45.375Z,99016.00
2018-11-02T07:16:13.978Z,99016.00
2018-11-02T07:18:42.942Z,99014.00
2018-11-02T07:21:11.766Z,99028.00
2018-11-02T07:23:40.495Z,99028.00
2018-11-02T07:26:16.131Z,99035.00
2018-11-02T07:28:45.057Z,99040.00
2018-11-02T07:31:13.765Z,99047.00
2018-11-02T07:33:42.631Z,99040.00
2018-11-02T07:36:11.517Z,99054.00
2018-11-02T07:38:40.204Z,99052.00
2018-11-02T07:41:08.867Z,99059.00
2018-11-02T07:43:37.886Z,99058.00
2018-11-02T07:46:06.774Z,99056.00
2018-11-02T07:48:35.556Z,99069.00
2018-11-02T07:51:04.450Z,99066.00
2018-11-02T07:53:33.268Z,99060.00
2018-11-02T07:56:02.072Z,99069.00
2018-11-02T07:58:30.678Z,99079.00
2018-11-02T08:00:59.379Z,99085.00
2018-11-02T08:03:39.917Z,99091.00
2018-11-02T08:06:08.799Z,99091.00
2018-11-02T08:08:37.481Z,99096.00
2018-11-02T08:11:06.510Z,99076.00
2018-11-02T08:13:35.280Z,99082.00
2018-11-02T08:16:04.077Z,99075.00
2018-11-02T08:18:35.250Z,99068.00
2018-11-02T08:21:03.950Z,99080.00
2018-11-02T08:23:32.672Z,99069.00
2018-11-02T08:26:01.451Z,99060.00
2018-11-02T08:28:30.179Z,99067.00
2018-11-02T08:30:58.961Z,99068.00
2018-11-02T08:33:28.135Z,99078.00
2018-11-02T08:35:57.037Z,99089.00
2018-11-02T08:38:25.756Z,99080.00
2018-11-02T08:40:54.514Z,99077.00
2018-11-02T08:43:23.193Z,99081.00
2018-11-02T08:45:52.400Z,99100.00
2018-11-02T08:48:21.035Z,99099.00
2018-11-02T08:50:49.828Z,99105.00
2018-11-02T08:53:19.052Z,99105.00
2018-11-02T08:55:47.988Z,99101.00
2018-11-02T08:58:16.619Z,99096.00
2018-11-02T09:00:45.311Z,99105.00
2018-11-02T09:03:13.857Z,99104.00
2018-11-02T09:05:42.462Z,99097.00
2018-11-02T09:08:11.020Z,99094.00
2018-11-02T09:10:39.750Z,99080.00
2018-11-02T09:13:08.393Z,99094.00
2018-11-02T09:15:37.149Z,99089.00
2018-11-02T09:18:05.910Z,99086.00
2018-11-02T09:20:34.694Z,99095.00
2018-11-02T09:23:03.484Z,99095.00
2018-11-02T09:25:32.151Z,99091.00
2018-11-02T09:28:00.885Z,99090.00
2018-11-02T09:30:29.557Z,99090.00
2018-11-02T09:32:58.339Z,99093.00
2018-11-02T09:35:27.067Z,99102.00
2018-11-02T09:37:55.783Z,99097.00
2018-11-02T09:40:24.547Z,99102.00
2018-11-02T09:42:53.142Z,99114.00
2018-11-02T09:45:21.791Z,99108.00
2018-11-02T09:47:50.453Z,99113.00
2018-11-02T09:50:19.148Z,99102.00
2018-11-02T09:52:47.772Z,99099.00
2018-11-02T09:55:16.866Z,99110.00
2018-11-02T09:57:46.341Z,99111.00
2018-11-02T10:00:15.258Z,99110.00
2018-11-02T10:02:43.839Z,99111.00
2018-11-02T10:05:13.102Z,99105.00
2018-11-02T10:07:42.326Z,99105.00
2018-11-02T10:10:12.059Z,99097.00
2018-11-02T10:12:40.672Z,99099.00
2018-11-02T10:15:11.790Z,99101.00
2018-11-02T10:17:40.525Z,99093.00
2018-11-02T10:20:09.885Z,99095.00
2018-11-02T10:22:38.774Z,99098.00
2018-11-02T10:25:07.871Z,99096.00
2018-11-02T10:27:37.242Z,99108.00
2018-11-02T10:30:07.961Z,99109.00
2018-11-02T10:32:36.728Z,99117.00
2018-11-02T10:35:07.353Z,99110.00
2018-11-02T10:37:36.530Z,99116.00
2018-11-02T10:40:08.566Z,99117.00
2018-11-02T10:42:37.286Z,99117.00
2018-11-02T10:45:06.285Z,99111.00
2018-11-02T10:47:34.825Z,99116.00
2018-11-02T10:50:03.707Z,99108.00
2018-11-02T10:52:32.301Z,99113.00
2018-11-02T10:55:01.029Z,99114.00
2018-11-02T10:57:29.684Z,99107.00
2018-11-02T10:59:58.680Z,99103.00
2018-11-02T11:02:32.731Z,99104.00
2018-11-02T11:05:02.396Z,99104.00
2018-11-02T11:07:31.046Z,99105.00
2018-11-02T11:09:59.770Z,99104.00
2018-11-02T11:12:31.903Z,99110.00
2018-11-02T11:15:00.418Z,99103.00
2018-11-02T11:17:29.219Z,99096.00
2018-11-02T11:19:57.900Z,99085.00
2018-11-02T11:22:26.793Z,99085.00
2018-11-02T11:24:56.498Z,99092.00
2018-11-02T11:27:25.145Z,99093.00
2018-11-02T11:29:53.901Z,99085.00
2018-11-02T11:32:22.572Z,99085.00
2018-11-02T11:34:51.933Z,99078.00
2018-11-02T11:37:20.747Z,99070.00
2018-11-02T11:39:49.564Z,99075.00
2018-11-02T11:42:18.212Z,99076.00
2018-11-02T11:44:46.961Z,99079.00
2018-11-02T11:47:15.563Z,99080.00
2018-11-02T11:49:44.301Z,99064.00
2018-11-02T11:52:13.318Z,99077.00
2018-11-02T11:54:42.152Z,99076.00
2018-11-02T11:57:11.123Z,99069.00
2018-11-02T11:59:39.691Z,99064.00
2018-11-02T12:02:08.437Z,99059.00
2018-11-02T12:04:37.112Z,99059.00
2018-11-02T12:07:06.403Z,99057.00
2018-11-02T12:09:34.883Z,99050.00
2018-11-02T12:12:03.508Z,99054.00
2018-11-02T12:14:32.225Z,99058.00
2018-11-02T12:17:01.218Z,99075.00
2018-11-02T12:19:29.862Z,99081.00
2018-11-02T12:21:59.845Z,99083.00
2018-11-02T12:24:28.512Z,99090.00
2018-11-02T12:26:56.995Z,99087.00
2018-11-02T12:29:25.459Z,99084.00
2018-11-02T12:31:54.045Z,99084.00
2018-11-02T12:34:22.595Z,99094.00
2018-11-02T12:36:51.373Z,99086.00
2018-11-02T12:39:20.027Z,99095.00
2018-11-02T12:41:48.720Z,99096.00
2018-11-02T12:44:17.354Z,99106.00
2018-11-02T12:46:45.976Z,99099.00
2018-11-02T12:49:14.889Z,99099.00
2018-11-02T12:51:43.252Z,99103.00
2018-11-02T12:54:11.977Z,99110.00
2018-11-02T12:56:40.777Z,99114.00
2018-11-02T12:59:09.353Z,99104.00
2018-11-02T13:01:38.686Z,99115.00
2018-11-02T13:04:07.363Z,99116.00
2018-11-02T13:06:35.883Z,99114.00
2018-11-02T13:09:05.821Z,99112.00
2018-11-02T13:11:34.357Z,99090.00
2018-11-02T13:14:03.125Z,99100.00
2018-11-02T13:16:31.756Z,99102.00
2018-11-02T13:19:00.834Z,99096.00
2018-11-02T13:21:30.392Z,99090.00
2018-11-02T13:23:59.108Z,99096.00
2018-11-02T13:26:27.793Z,99094.00
2018-11-02T13:28:56.272Z,99091.00
2018-11-02T13:31:24.987Z,99088.00
2018-11-02T13:33:53.789Z,99089.00
2018-11-02T13:36:22.377Z,99098.00
2018-11-02T13:38:50.974Z,99105.00
2018-11-02T13:41:19.468Z,99121.00
2018-11-02T13:43:48.042Z,99117.00
2018-11-02T13:46:16.821Z,99125.00
2018-11-02T13:48:45.570Z,99107.00
2018-11-02T13:51:14.254Z,99102.00
2018-11-02T13:53:42.995Z,99102.00
2018-11-02T13:56:11.545Z,99113.00
2018-11-02T13:58:40.435Z,99108.00
2018-11-02T14:01:09.264Z,99113.00
2018-11-02T14:03:37.775Z,99095.00
2018-11-02T14:06:06.821Z,99088.00
2018-11-02T14:08:35.464Z,99100.00
2018-11-02T14:11:03.963Z,99094.00
2018-11-02T14:13:32.690Z,99095.00
2018-11-02T14:16:01.325Z,99105.00
2018-11-02T14:18:29.841Z,99115.00
2018-11-02T14:20:58.532Z,99121.00
2018-11-02T14:23:27.049Z,99122.00
2018-11-02T14:25:55.949Z,99119.00
2018-11-02T14:28:24.662Z,99119.00
2018-11-02T14:30:53.212Z,99128.00
2018-11-02T14:33:21.795Z,99133.00
2018-11-02T14:35:50.512Z,99144.00
2018-11-02T14:38:19.124Z,99155.00
2018-11-02T14:40:50.804Z,99169.00
2018-11-02T14:43:23.350Z,99161.00
2018-11-02T14:45:51.952Z,99166.00
2018-11-02T14:48:20.570Z,99155.00
2018-11-02T14:50:50.826Z,99157.00
2018-11-02T14:53:19.519Z,99159.00
2018-11-02T14:55:48.304Z,99148.00
2018-11-02T14:58:17.095Z,99141.00
2018-11-02T15:00:45.684Z,99145.00
2018-11-02T15:03:14.377Z,99144.00
2018-11-02T15:05:42.831Z,99139.00
2018-11-02T15:08:11.527Z,99148.00
2018-11-02T15:10:43.950Z,99147.00
2018-11-02T15:13:13.223Z,99145.00
2018-11-02T15:15:41.923Z,99134.00
2018-11-02T15:18:12.919Z,99138.00
2018-11-02T15:20:41.660Z,99135.00
2018-11-02T15:23:11.303Z,99131.00
2018-11-02T15:25:42.019Z,99131.00
2018-11-02T15:28:30.545Z,99145.00
2018-11-02T15:31:16.870Z,99138.00
2018-11-02T15:33:45.568Z,99127.00
2018-11-02T15:36:14.399Z,99146.00
2018-11-02T15:38:42.970Z,99147.00
2018-11-02T15:41:11.876Z,99144.00
2018-11-02T15:43:40.464Z,99147.00
2018-11-02T15:46:09.203Z,99152.00
2018-11-02T15:48:37.943Z,99156.00
2018-11-02T15:51:06.591Z,99168.00
2018-11-02T15:53:35.307Z,99181.00
2018-11-02T15:56:03.985Z,99179.00
2018-11-02T15:58:32.787Z,99182.00
2018-11-02T16:01:01.474Z,99196.00
2018-11-02T16:03:30.238Z,99201.00
2018-11-02T16:05:58.980Z,99207.00
2018-11-02T16:08:28.184Z,99207.00
2018-11-02T16:10:57.474Z,99212.00
2018-11-02T16:13:26.129Z,99217.00
2018-11-02T16:15:54.799Z,99222.00
2018-11-02T16:18:24.403Z,99213.00
2018-11-02T16:20:53.439Z,99216.00
2018-11-02T16:23:22.366Z,99225.00
2018-11-02T16:25:51.320Z,99222.00
2018-11-02T16:28:20.494Z,99225.00
2018-11-02T16:30:49.654Z,99230.00
2018-11-02T16:33:20.166Z,99236.00
2018-11-02T16:35:49.758Z,99236.00
2018-11-02T16:38:18.443Z,99237.00
2018-11-02T16:40:48.817Z,99252.00
2018-11-02T16:43:20.155Z,99264.00
2018-11-02T16:45:50.380Z,99270.00
2018-11-02T16:48:19.503Z,99268.00
2018-11-02T16:50:48.322Z,99272.00
2018-11-02T16:53:16.906Z,99278.00
2018-11-02T16:55:45.686Z,99270.00
2018-11-02T16:58:14.656Z,99273.00
2018-11-02T17:00:43.275Z,99275.00
2018-11-02T17:03:16.010Z,99271.00
2018-11-02T17:05:44.577Z,99283.00
2018-11-02T17:08:13.413Z,99278.00
2018-11-02T17:10:42.096Z,99274.00
2018-11-02T17:13:10.638Z,99282.00
2018-11-02T17:15:39.212Z,99282.00
2018-11-02T17:18:07.817Z,99283.00
2018-11-02T17:20:36.595Z,99289.00
2018-11-02T17:23:05.284Z,99296.00
2018-11-02T17:25:33.862Z,99287.00
2018-11-02T17:28:02.532Z,99289.00
2018-11-02T17:30:31.277Z,99305.00
2018-11-02T17:33:00.010Z,99311.00
2018-11-02T17:35:28.623Z,99326.00
2018-11-02T17:37:57.288Z,99337.00
2018-11-02T17:40:25.910Z,99330.00
2018-11-02T17:42:54.630Z,99338.00
2018-11-02T17:45:23.533Z,99336.00
2018-11-02T17:47:52.650Z,99341.00
2018-11-02T17:50:21.177Z,99335.00
2018-11-02T17:52:49.699Z,99332.00
2018-11-02T17:55:18.469Z,99338.00
2018-11-02T17:57:52.362Z,99332.00
2018-11-02T18:00:22.116Z,99346.00
2018-11-02T18:02:51.282Z,99347.00
2018-11-02T18:05:20.298Z,99355.00
2018-11-02T18:07:49.999Z,99359.00
2018-11-02T18:10:19.207Z,99362.00
2018-11-02T18:12:48.478Z,99366.00
2018-11-02T18:15:18.767Z,99360.00
2018-11-02T18:17:47.801Z,99375.00
2018-11-02T18:20:17.409Z,99371.00
2018-11-02T18:22:49.358Z,99377.00
2018-11-02T18:25:18.567Z,99384.00
2018-11-02T18:27:47.991Z,99398.00
2018-11-02T18:30:17.067Z,99387.00
2018-11-02T18:32:48.044Z,99393.00
2018-11-02T18:35:18.323Z,99393.00
2018-11-02T18:37:47.545Z,99386.00
2018-11-02T18:40:17.805Z,99392.00
2018-11-02T18:42:47.051Z,99379.00
2018-11-02T18:45:16.427Z,99394.00
2018-11-02T18:47:48.739Z,99389.00
2018-11-02T18:50:19.039Z,99397.00
2018-11-02T18:52:49.199Z,99394.00
2018-11-02T18:55:19.095Z,99394.00
2018-11-02T18:57:48.568Z,99395.00
2018-11-02T19:00:18.163Z,99403.00
2018-11-02T19:02:47.595Z,99417.00
2018-11-02T19:05:19.097Z,99417.00
2018-11-02T19:07:48.440Z,99415.00
2018-11-02T19:10:17.724Z,99416.00
2018-11-02T19:12:48.109Z,99408.00
2018-11-02T19:15:18.636Z,99415.00
2018-11-02T19:17:48.009Z,99420.00
2018-11-02T19:20:17.663Z,99413.00
2018-11-02T19:22:46.662Z,99429.00
2018-11-02T19:25:16.658Z,99408.00
2018-11-02T19:27:46.315Z,99406.00
2018-11-02T19:30:16.128Z,99409.00
2018-11-02T19:32:45.615Z,99420.00
2018-11-02T19:35:16.010Z,99409.00
2018-11-02T19:37:46.361Z,99418.00
2018-11-02T19:40:16.380Z,99417.00
2018-11-02T19:42:45.635Z,99431.00
2018-11-02T19:45:14.836Z,99439.00
2018-11-02T19:47:49.005Z,99448.00
2018-11-02T19:50:18.481Z,99444.00
2018-11-02T19:52:47.419Z,99440.00
2018-11-02T19:55:16.163Z,99454.00
2018-11-02T19:57:44.947Z,99442.00
2018-11-02T20:00:15.953Z,99439.00
2018-11-02T20:02:44.531Z,99435.00
2018-11-02T20:05:14.883Z,99424.00
2018-11-02T20:07:43.634Z,99433.00
2018-11-02T20:10:13.207Z,99432.00
2018-11-02T20:12:42.109Z,99451.00
2018-11-02T20:15:12.834Z,99462.00
2018-11-02T20:17:41.600Z,99454.00
2018-11-02T20:20:12.277Z,99463.00
2018-11-02T20:22:40.831Z,99456.00
2018-11-02T20:25:11.449Z,99441.00
2018-11-02T20:27:40.318Z,99449.00
2018-11-02T20:30:11.484Z,99465.00
2018-11-02T20:32:40.143Z,99460.00
2018-11-02T20:35:10.259Z,99462.00
2018-11-02T20:37:39.739Z,99454.00
2018-11-02T20:40:10.419Z,99458.00
2018-11-02T20:42:39.212Z,99454.00
2018-11-02T20:45:08.033Z,99449.00
2018-11-02T20:47:42.540Z,99452.00
2018-11-02T20:50:12.420Z,99456.00
2018-11-02T20:52:41.680Z,99454.00
2018-11-02T20:55:11.719Z,99455.00
2018-11-02T20:57:40.988Z,99451.00
2018-11-02T21:00:12.332Z,99447.00
2018-11-02T21:02:41.690Z,99444.00
2018-11-02T21:06:12.598Z,99448.00
2018-11-02T21:08:41.366Z,99445.00
2018-11-02T21:11:09.874Z,99450.00
2018-11-02T21:13:38.783Z,99450.00
2018-11-02T21:16:07.472Z,99454.00
2018-11-02T21:18:36.156Z,99451.00
2018-11-02T21:21:05.722Z,99460.00
2018-11-02T21:23:34.553Z,99461.00
2018-11-02T21:26:03.246Z,99466.00
2018-11-02T21:28:31.995Z,99471.00
2018-11-02T21:31:00.925Z,99463.00
2018-11-02T21:33:30.402Z,99468.00
2018-11-02T21:35:59.278Z,99461.00
2018-11-02T21:38:27.933Z,99468.00
2018-11-02T21:40:56.550Z,99460.00
2018-11-02T21:43:25.343Z,99463.00
2018-11-02T21:45:54.565Z,99453.00
2018-11-02T21:48:23.158Z,99466.00
2018-11-02T21:50:51.709Z,99451.00
2018-11-02T21:53:20.364Z,99455.00
2018-11-02T21:55:48.903Z,99463.00
2018-11-02T21:58:17.544Z,99452.00
2018-11-02T22:00:46.098Z,99455.00
2018-11-02T22:03:14.639Z,99462.00
2018-11-02T22:05:43.304Z,99459.00
2018-11-02T22:08:12.047Z,99469.00
2018-11-02T22:10:40.751Z,99474.00
2018-11-02T22:13:09.602Z,99474.00
2018-11-02T22:15:38.206Z,99473.00
2018-11-02T22:18:06.772Z,99474.00
2018-11-02T22:20:35.454Z,99480.00
2018-11-02T22:23:04.109Z,99489.00
2018-11-02T22:25:32.710Z,99490.00
2018-11-02T22:28:01.267Z,99488.00
2018-11-02T22:30:30.215Z,99486.00
2018-11-02T22:32:58.993Z,99485.00
2018-11-02T22:35:27.725Z,99492.00
2018-11-02T22:37:56.332Z,99498.00
2018-11-02T22:40:24.997Z,99488.00
2018-11-02T22:42:53.768Z,99498.00
2018-11-02T22:45:22.329Z,99492.00
2018-11-02T22:47:56.219Z,99493.00
2018-11-02T22:50:24.944Z,99494.00
2018-11-02T22:52:53.845Z,99495.00
2018-11-02T22:55:22.619Z,99500.00
2018-11-02T22:57:51.305Z,99491.00
2018-11-02T23:00:20.005Z,99498.00
2018-11-02T23:02:49.291Z,99501.00
2018-11-02T23:05:17.860Z,99504.00
2018-11-02T23:07:46.435Z,99510.00
2018-11-02T23:10:15.111Z,99510.00
2018-11-02T23:12:43.881Z,99506.00
2018-11-02T23:15:13.159Z,99505.00
2018-11-02T23:17:41.880Z,99502.00
2018-11-02T23:20:12.554Z,99508.00
2018-11-02T23:22:41.227Z,99506.00
2018-11-02T23:25:11.066Z,99508.00
2018-11-02T23:27:40.293Z,99495.00
2018-11-02T23:30:09.537Z,99498.00
2018-11-02T23:32:38.224Z,99485.00
2018-11-02T23:35:07.055Z,99496.00
2018-11-02T23:37:35.862Z,99497.00
2018-11-02T23:40:04.530Z,99497.00
2018-11-02T23:42:33.203Z,99497.00
2018-11-02T23:45:02.107Z,99491.00
2018-11-02T23:47:30.882Z,99501.00
2018-11-02T23:49:59.573Z,99512.00
2018-11-02T23:52:28.558Z,99513.00
2018-11-02T23:54:57.260Z,99521.00
2018-11-02T23:57:26.003Z,99522.00
2018-11-02T23:59:55.035Z,99508.00
